Time;durP1;ratioP1;P1;durP2;ratioP2;P2;SDS_P1;SDS_P2;PMS_P1;PMS_P2;Temp;Humidity;BMP_temperature;BMP_pressure;BME280_temperature;BME280_humidity;BME280_pressure;Samples;Min_cycle;Max_cycle;Signal;HPM_P1;HPM_P2
2021/06/27 00:00:27;;;;;;;13.77;10.90;;;20.60;68.60;;;;;;4719001;30;20048;-81
2021/06/27 00:02:55;;;;;;;11.98;9.15;;;20.60;68.80;;;;;;4727348;30;20494;-81
2021/06/27 00:05:24;;;;;;;14.23;10.88;;;20.50;68.90;;;;;;4724834;30;20044;-81
2021/06/27 00:07:53;;;;;;;13.88;9.77;;;20.50;69.00;;;;;;4726498;30;20049;-81
2021/06/27 00:10:23;;;;;;;13.73;10.07;;;20.50;69.10;;;;;;4703351;30;20410;-80
2021/06/27 00:12:51;;;;;;;13.35;9.77;;;20.50;69.20;;;;;;4725399;30;20066;-81
2021/06/27 00:15:40;;;;;;;12.05;9.98;;;20.50;69.30;;;;;;4704227;30;20447;-81
2021/06/27 00:18:08;;;;;;;13.80;10.45;;;20.50;69.30;;;;;;4719967;30;20560;-82
2021/06/27 00:20:38;;;;;;;11.93;9.00;;;20.40;69.40;;;;;;4725593;30;20083;-81
2021/06/27 00:23:06;;;;;;;12.60;9.30;;;20.40;69.40;;;;;;4714241;30;20485;-81
2021/06/27 00:25:35;;;;;;;13.07;9.57;;;20.40;69.50;;;;;;4718338;30;20088;-81
2021/06/27 00:28:03;;;;;;;13.10;9.88;;;20.40;70.10;;;;;;4725057;30;20087;-81
2021/06/27 00:30:31;;;;;;;12.50;9.75;;;20.40;69.60;;;;;;4713256;30;20490;-81
2021/06/27 00:32:59;;;;;;;12.63;9.30;;;20.40;69.70;;;;;;4724527;30;20415;-81
2021/06/27 00:35:27;;;;;;;11.55;9.57;;;20.50;69.70;;;;;;4700932;30;20410;-81
2021/06/27 00:37:55;;;;;;;13.38;9.48;;;20.40;69.70;;;;;;4728016;30;20049;-80
2021/06/27 00:40:25;;;;;;;12.48;9.27;;;20.40;69.80;;;;;;4730272;30;20154;-81
2021/06/27 00:42:52;;;;;;;13.35;10.23;;;20.40;69.90;;;;;;4724318;30;20061;-81
2021/06/27 00:45:21;;;;;;;12.35;9.75;;;20.40;70.10;;;;;;4728211;30;20052;-81
2021/06/27 00:47:48;;;;;;;12.50;9.98;;;20.40;70.10;;;;;;4716263;30;20119;-81
2021/06/27 00:50:28;;;;;;;14.43;10.38;;;20.30;70.30;;;;;;4717668;30;20052;-81
2021/06/27 00:52:56;;;;;;;17.73;11.48;;;20.30;71.00;;;;;;4726116;30;20045;-80
2021/06/27 00:55:24;;;;;;;14.90;10.77;;;20.30;70.60;;;;;;4734877;30;20041;-81
2021/06/27 00:57:52;;;;;;;12.85;10.07;;;20.20;70.70;;;;;;4715478;30;20114;-81
2021/06/27 01:00:25;;;;;;;14.52;10.82;;;20.20;70.70;;;;;;4727396;30;20056;-81
2021/06/27 01:02:53;;;;;;;14.38;10.32;;;20.20;70.90;;;;;;4713939;30;20124;-81
2021/06/27 01:05:24;;;;;;;13.18;9.80;;;20.20;71.00;;;;;;4728395;30;20056;-80
2021/06/27 01:07:51;;;;;;;12.68;9.77;;;20.20;70.90;;;;;;4717844;30;20049;-80
2021/06/27 01:10:18;;;;;;;13.18;10.15;;;20.20;71.00;;;;;;4715891;30;20049;-80
2021/06/27 01:12:45;;;;;;;14.13;11.07;;;20.30;71.10;;;;;;4713406;30;20213;-80
2021/06/27 01:15:14;;;;;;;15.30;11.73;;;20.30;71.10;;;;;;4714254;30;20124;-80
2021/06/27 01:17:47;;;;;;;15.13;11.50;;;20.30;71.40;;;;;;4714956;30;20102;-82
2021/06/27 01:20:16;;;;;;;;;;;20.30;71.40;;;;;;4708230;30;20055;-81
2021/06/27 01:22:43;;;;;;;14.02;10.43;;;20.30;71.50;;;;;;4716760;30;20005;-81
2021/06/27 01:25:11;;;;;;;19.98;15.70;;;20.20;71.50;;;;;;4726163;30;20064;-81
2021/06/27 01:27:38;;;;;;;17.65;14.20;;;20.20;72.20;;;;;;4726540;30;20127;-81
2021/06/27 01:30:10;;;;;;;19.85;16.13;;;20.20;72.30;;;;;;4710846;30;20161;-81
2021/06/27 01:32:44;;;;;;;18.73;14.30;;;20.10;72.50;;;;;;4709589;30;20596;-81
2021/06/27 01:35:14;;;;;;;18.38;13.93;;;20.10;72.80;;;;;;4730393;30;20303;-81
2021/06/27 01:37:46;;;;;;;18.98;13.98;;;20.00;72.90;;;;;;4714828;30;20088;-80
2021/06/27 01:40:16;;;;;;;20.95;16.60;;;20.00;73.10;;;;;;4726436;30;20099;-81
2021/06/27 01:42:44;;;;;;;19.77;14.68;;;19.90;73.40;;;;;;4717285;30;20506;-81
2021/06/27 01:45:25;;;;;;;18.77;15.10;;;19.90;73.50;;;;;;4701165;30;20144;-80
2021/06/27 01:47:59;;;;;;;16.92;13.23;;;19.90;73.60;;;;;;4714193;30;20049;-80
2021/06/27 01:50:27;;;;;;;16.40;12.75;;;19.80;73.70;;;;;;4715757;30;20102;-80
2021/06/27 01:52:56;;;;;;;16.27;11.98;;;19.80;73.80;;;;;;4731528;30;20048;-80
2021/06/27 01:55:24;;;;;;;14.98;11.35;;;19.80;73.80;;;;;;4711656;30;20049;-80
2021/06/27 01:57:52;;;;;;;18.65;13.38;;;19.70;73.90;;;;;;4701869;30;20052;-80
2021/06/27 02:00:21;;;;;;;18.00;12.77;;;19.80;74.10;;;;;;4725277;30;20076;-80
2021/06/27 02:02:48;;;;;;;17.27;12.93;;;19.70;74.10;;;;;;4726050;30;20061;-81
2021/06/27 02:05:15;;;;;;;17.88;12.98;;;19.70;74.30;;;;;;4701733;30;20057;-80
2021/06/27 02:07:42;;;;;;;20.20;13.77;;;19.70;74.50;;;;;;4724796;30;20048;-81
2021/06/27 02:10:13;;;;;;;19.67;13.98;;;19.60;74.60;;;;;;4726918;30;20590;-80
2021/06/27 02:12:40;;;;;;;16.52;12.65;;;19.60;74.70;;;;;;4710633;30;20048;-81
2021/06/27 02:15:09;;;;;;;17.67;11.85;;;19.50;74.80;;;;;;4700206;30;20131;-81
2021/06/27 02:17:37;;;;;;;18.27;12.98;;;19.50;75.00;;;;;;4711435;30;20062;-81
2021/06/27 02:20:05;;;;;;;20.98;15.40;;;19.50;75.00;;;;;;4710209;30;20045;-81
2021/06/27 02:22:33;;;;;;;16.85;12.63;;;19.50;75.20;;;;;;4726785;30;20049;-81
2021/06/27 02:25:00;;;;;;;19.85;15.18;;;19.40;75.30;;;;;;4726761;30;20594;-81
2021/06/27 02:27:27;;;;;;;18.45;13.00;;;19.40;75.50;;;;;;4714449;30;20193;-81
2021/06/27 02:29:54;;;;;;;19.02;13.52;;;19.40;75.50;;;;;;4722477;30;20060;-81
2021/06/27 02:32:22;;;;;;;16.50;12.88;;;19.40;75.60;;;;;;4712857;30;20044;-81
2021/06/27 02:34:49;;;;;;;19.10;13.65;;;19.40;75.70;;;;;;4721142;30;20057;-80
2021/06/27 02:37:16;;;;;;;21.02;15.38;;;19.40;75.80;;;;;;4714260;30;20037;-80
2021/06/27 02:39:43;;;;;;;19.33;13.77;;;19.40;75.90;;;;;;4727658;30;20065;-80
2021/06/27 02:42:10;;;;;;;18.38;13.15;;;19.40;75.90;;;;;;4702771;30;20060;-80
2021/06/27 02:44:37;;;;;;;20.13;14.75;;;19.40;76.00;;;;;;4727535;30;20052;-81
2021/06/27 02:47:04;;;;;;;20.13;14.38;;;19.30;76.00;;;;;;4715211;30;20072;-81
2021/06/27 02:49:32;;;;;;;20.38;13.93;;;19.30;76.20;;;;;;4701467;30;20072;-81
2021/06/27 02:51:59;;;;;;;17.17;12.77;;;19.30;76.80;;;;;;4714476;30;20056;-81
2021/06/27 02:54:26;;;;;;;17.80;13.02;;;19.20;76.20;;;;;;4717970;30;20107;-81
2021/06/27 02:56:53;;;;;;;18.02;12.73;;;19.20;76.40;;;;;;4712783;30;20118;-81
2021/06/27 02:59:20;;;;;;;18.38;13.43;;;19.20;76.40;;;;;;4712541;30;20464;-81
2021/06/27 03:01:47;;;;;;;17.88;13.05;;;19.20;76.50;;;;;;4724888;30;20114;-81
2021/06/27 03:04:14;;;;;;;16.55;11.82;;;19.20;76.50;;;;;;4712508;30;20124;-82
2021/06/27 03:06:41;;;;;;;16.17;12.13;;;19.20;76.60;;;;;;4712247;30;20056;-80
2021/06/27 03:09:08;;;;;;;17.98;13.40;;;19.10;76.60;;;;;;4728239;30;20084;-81
2021/06/27 03:11:35;;;;;;;16.55;12.20;;;19.10;76.70;;;;;;4712019;30;20045;-80
2021/06/27 03:14:02;;;;;;;18.67;13.18;;;19.10;76.70;;;;;;4720062;30;20052;-80
2021/06/27 03:16:29;;;;;;;21.80;15.38;;;19.10;77.00;;;;;;4695700;30;20044;-80
2021/06/27 03:18:56;;;;;;;18.48;12.93;;;19.10;77.00;;;;;;4711482;30;20057;-80
2021/06/27 03:21:23;;;;;;;20.25;15.00;;;19.10;77.10;;;;;;4726086;30;20476;-80
2021/06/27 03:23:50;;;;;;;17.55;12.82;;;19.10;77.30;;;;;;4712472;30;20053;-80
2021/06/27 03:26:17;;;;;;;23.67;15.45;;;19.00;77.30;;;;;;4720754;30;20087;-80
2021/06/27 03:28:50;;;;;;;20.67;14.40;;;19.00;77.40;;;;;;4717967;30;20063;-80
2021/06/27 03:31:17;;;;;;;18.40;13.93;;;19.00;77.40;;;;;;4720242;30;20510;-80
2021/06/27 03:33:44;;;;;;;19.65;13.63;;;19.00;77.40;;;;;;4692003;30;20041;-80
2021/06/27 03:36:11;;;;;;;19.65;14.45;;;19.00;77.50;;;;;;4719702;30;20044;-80
2021/06/27 03:41:08;;;;;;;21.98;15.48;;;19.00;77.80;;;;;;4731937;30;20048;-79
2021/06/27 03:43:35;;;;;;;22.42;14.98;;;19.00;77.90;;;;;;4707687;30;20065;-80
2021/06/27 03:46:02;;;;;;;18.63;13.30;;;18.90;77.90;;;;;;4729042;30;21576;-81
2021/06/27 03:48:29;;;;;;;18.70;12.57;;;18.90;78.00;;;;;;4715085;30;20068;-80
2021/06/27 03:50:56;;;;;;;18.25;13.15;;;18.90;78.10;;;;;;4729488;30;20060;-80
2021/06/27 03:53:23;;;;;;;22.00;15.32;;;18.90;78.10;;;;;;4707102;30;20601;-80
2021/06/27 03:55:56;;;;;;;23.48;16.63;;;18.90;78.20;;;;;;4719913;30;20049;-80
2021/06/27 03:58:27;;;;;;;22.50;16.13;;;18.90;78.40;;;;;;4723606;30;20045;-80
2021/06/27 04:00:55;;;;;;;22.80;15.02;;;18.90;78.40;;;;;;4738399;30;20564;-80
2021/06/27 04:03:22;;;;;;;20.23;14.38;;;18.90;78.40;;;;;;4718220;30;20061;-81
2021/06/27 04:05:49;;;;;;;18.35;13.13;;;18.90;78.40;;;;;;4717447;30;20406;-81
2021/06/27 04:08:16;;;;;;;18.73;13.68;;;18.90;78.30;;;;;;4702879;30;20388;-81
2021/06/27 04:10:43;;;;;;;21.48;13.23;;;18.90;78.30;;;;;;4731744;30;20446;-82
2021/06/27 04:13:10;;;;;;;17.75;12.43;;;18.90;78.20;;;;;;4730788;30;20060;-81
2021/06/27 04:15:37;;;;;;;17.15;11.98;;;19.00;78.20;;;;;;4705310;30;20048;-80
2021/06/27 04:18:10;;;;;;;16.40;11.52;;;18.90;78.20;;;;;;4727110;30;20098;-79
2021/06/27 04:20:37;;;;;;;19.60;13.50;;;19.00;78.20;;;;;;4739353;30;20044;-78
2021/06/27 04:23:06;;;;;;;16.45;11.48;;;19.00;78.20;;;;;;4715373;30;20076;-79
2021/06/27 04:25:35;;;;;;;20.73;12.77;;;19.00;78.10;;;;;;4737064;30;20041;-82
2021/06/27 04:28:03;;;;;;;17.30;11.75;;;19.00;78.10;;;;;;4723970;30;20560;-80
2021/06/27 04:30:30;;;;;;;16.13;11.55;;;19.10;78.00;;;;;;4739362;30;20048;-79
2021/06/27 04:32:58;;;;;;;16.33;11.68;;;19.10;77.90;;;;;;4705834;30;20051;-80
2021/06/27 04:35:25;;;;;;;18.80;13.45;;;19.20;77.90;;;;;;4712601;30;20062;-80
2021/06/27 04:37:52;;;;;;;18.55;12.93;;;19.30;77.60;;;;;;4710760;30;20136;-80
2021/06/27 04:40:19;;;;;;;17.90;12.82;;;19.30;77.40;;;;;;4732329;30;20921;-79
2021/06/27 04:42:46;;;;;;;19.13;13.00;;;19.40;77.40;;;;;;4711063;30;20145;-80
2021/06/27 04:45:13;;;;;;;16.88;12.30;;;19.40;77.90;;;;;;4724195;30;20060;-79
2021/06/27 04:47:41;;;;;;;14.88;10.85;;;19.50;77.20;;;;;;4736218;30;20118;-78
2021/06/27 04:50:08;;;;;;;18.67;12.20;;;19.50;77.10;;;;;;4720484;30;20044;-81
2021/06/27 04:52:36;;;;;;;15.27;11.90;;;19.60;77.10;;;;;;4745106;30;20102;-80
2021/06/27 04:55:04;;;;;;;16.05;10.55;;;19.60;77.00;;;;;;4736517;30;20134;-80
2021/06/27 04:57:32;;;;;;;15.05;11.18;;;19.70;76.80;;;;;;4721556;30;20053;-80
2021/06/27 04:59:59;;;;;;;16.35;12.07;;;19.80;76.70;;;;;;4739193;30;20048;-80
2021/06/27 05:02:26;;;;;;;15.93;11.52;;;19.90;76.50;;;;;;4718113;30;20102;-80
2021/06/27 05:04:53;;;;;;;15.32;12.02;;;19.90;76.30;;;;;;4705546;30;20052;-79
2021/06/27 05:07:21;;;;;;;16.08;11.32;;;20.00;76.20;;;;;;4736298;30;20414;-80
2021/06/27 05:09:49;;;;;;;15.60;11.20;;;20.00;76.00;;;;;;4731820;30;20048;-81
2021/06/27 05:12:16;;;;;;;17.20;11.88;;;20.00;75.90;;;;;;4728989;30;20045;-80
2021/06/27 05:14:43;;;;;;;17.73;10.70;;;20.10;75.90;;;;;;4702574;30;20134;-80
2021/06/27 05:17:10;;;;;;;15.20;11.73;;;20.10;75.80;;;;;;4736012;30;20083;-79
2021/06/27 05:19:37;;;;;;;17.40;13.00;;;20.10;75.80;;;;;;4732018;30;20076;-79
2021/06/27 05:22:04;;;;;;;14.18;10.45;;;20.10;75.70;;;;;;4721715;30;20056;-79
2021/06/27 05:24:31;;;;;;;15.00;10.55;;;20.10;75.60;;;;;;4732086;30;20533;-79
2021/06/27 05:26:58;;;;;;;16.45;11.63;;;20.20;75.60;;;;;;4694030;30;20045;-82
2021/06/27 05:29:25;;;;;;;14.35;10.80;;;20.20;75.50;;;;;;4714152;30;20422;-82
2021/06/27 05:31:52;;;;;;;12.98;9.93;;;20.20;75.40;;;;;;4706774;30;20098;-82
2021/06/27 05:34:19;;;;;;;12.85;9.40;;;20.30;75.20;;;;;;4706683;30;20067;-82
2021/06/27 05:36:46;;;;;;;13.63;10.30;;;20.40;75.10;;;;;;4705496;30;20049;-81
2021/06/27 05:39:14;;;;;;;12.23;8.98;;;20.50;74.90;;;;;;4721232;30;20582;-82
2021/06/27 05:41:43;;;;;;;13.07;9.20;;;20.50;74.70;;;;;;4706537;30;20510;-82
2021/06/27 05:44:13;;;;;;;15.75;10.32;;;20.60;74.70;;;;;;4703240;30;20098;-82
2021/06/27 05:46:40;;;;;;;12.15;8.25;;;20.60;74.60;;;;;;4705390;30;20069;-83
2021/06/27 05:49:08;;;;;;;12.27;8.55;;;20.60;74.50;;;;;;4705748;30;20056;-81
2021/06/27 05:51:37;;;;;;;13.50;9.70;;;20.60;74.50;;;;;;4705417;30;20053;-82
2021/06/27 05:54:05;;;;;;;10.98;7.93;;;20.60;74.40;;;;;;4706477;30;20165;-81
2021/06/27 05:56:32;;;;;;;13.15;10.07;;;20.60;74.30;;;;;;4707055;30;20064;-82
2021/06/27 05:59:03;;;;;;;13.68;10.00;;;20.70;74.80;;;;;;4692642;30;20089;-82
2021/06/27 06:01:31;;;;;;;12.43;8.80;;;20.70;74.00;;;;;;4716454;30;20102;-83
2021/06/27 06:03:58;;;;;;;13.10;9.38;;;20.80;73.90;;;;;;4708344;30;20091;-82
2021/06/27 06:06:25;;;;;;;14.02;10.48;;;20.90;73.80;;;;;;4694002;30;20072;-82
2021/06/27 06:08:52;;;;;;;11.85;8.93;;;20.90;73.60;;;;;;4725501;30;20084;-80
2021/06/27 06:11:22;;;;;;;11.20;8.27;;;20.90;73.40;;;;;;4704438;30;20514;-80
2021/06/27 06:13:49;;;;;;;12.70;8.73;;;21.00;73.40;;;;;;4706300;30;20506;-80
2021/06/27 06:16:16;;;;;;;14.88;10.57;;;21.10;73.30;;;;;;4720797;30;20471;-80
2021/06/27 06:18:45;;;;;;;13.77;9.70;;;21.10;73.10;;;;;;4705609;30;20045;-80
2021/06/27 06:21:13;;;;;;;13.73;10.00;;;21.20;73.00;;;;;;4676481;30;20075;-80
2021/06/27 06:23:40;;;;;;;14.38;10.20;;;21.20;72.90;;;;;;4715796;30;20044;-80
2021/06/27 06:26:08;;;;;;;11.50;8.98;;;21.20;72.90;;;;;;4704497;30;20063;-79
2021/06/27 06:28:35;;;;;;;12.00;9.10;;;21.20;72.90;;;;;;4723837;30;20055;-80
2021/06/27 06:31:02;;;;;;;11.98;9.38;;;21.20;72.90;;;;;;4693540;30;20082;-80
2021/06/27 06:33:29;;;;;;;11.30;9.02;;;21.20;72.90;;;;;;4704213;30;20107;-79
2021/06/27 06:36:19;;;;;;;12.05;8.45;;;21.20;72.90;;;;;;4718155;30;20075;-79
2021/06/27 06:38:57;;;;;;;12.27;9.02;;;21.20;72.90;;;;;;4719219;30;20052;-79
2021/06/27 06:41:25;;;;;;;13.35;9.77;;;21.20;72.90;;;;;;4710909;30;20064;-80
2021/06/27 06:43:55;;;;;;;12.85;8.88;;;21.20;72.80;;;;;;4704574;30;20057;-80
2021/06/27 06:46:25;;;;;;;12.65;9.02;;;21.20;72.70;;;;;;4704745;30;20068;-79
2021/06/27 06:48:56;;;;;;;10.32;7.47;;;21.30;72.60;;;;;;4693092;30;20118;-80
2021/06/27 06:51:26;;;;;;;12.52;8.90;;;21.40;72.40;;;;;;4704035;30;20060;-79
2021/06/27 06:53:54;;;;;;;13.15;8.98;;;21.60;72.20;;;;;;4703789;30;20494;-80
2021/06/27 06:56:21;;;;;;;10.48;8.07;;;21.70;72.00;;;;;;4720701;30;20052;-80
2021/06/27 06:58:48;;;;;;;12.27;8.63;;;21.80;71.80;;;;;;4701804;30;20045;-80
2021/06/27 07:01:16;;;;;;;13.43;10.43;;;21.80;71.50;;;;;;4713254;30;20487;-80
2021/06/27 07:03:44;;;;;;;12.23;8.82;;;21.90;71.30;;;;;;4702627;30;20407;-80
2021/06/27 07:06:12;;;;;;;9.77;7.63;;;22.00;71.20;;;;;;4714274;30;20076;-80
2021/06/27 07:08:39;;;;;;;11.73;8.82;;;22.20;71.10;;;;;;4706413;30;20044;-80
2021/06/27 07:11:06;;;;;;;10.93;7.72;;;22.30;70.70;;;;;;4712077;30;20079;-80
2021/06/27 07:13:33;;;;;;;12.90;9.35;;;22.50;70.50;;;;;;4704026;30;20135;-81
2021/06/27 07:16:00;;;;;;;13.48;9.63;;;22.60;70.00;;;;;;4730426;30;20051;-81
2021/06/27 07:18:28;;;;;;;10.20;7.95;;;22.70;69.80;;;;;;4719975;30;20036;-80
2021/06/27 07:20:55;;;;;;;11.93;8.57;;;22.80;69.70;;;;;;4703930;30;20056;-80
2021/06/27 07:23:22;;;;;;;12.63;9.35;;;22.90;69.60;;;;;;4686554;30;20060;-81
2021/06/27 07:25:49;;;;;;;11.05;8.70;;;23.00;69.30;;;;;;4664158;30;20057;-80
2021/06/27 07:28:16;;;;;;;12.20;9.85;;;23.00;69.10;;;;;;4703361;30;20076;-80
2021/06/27 07:30:43;;;;;;;11.00;8.13;;;23.10;69.00;;;;;;4698987;30;20114;-81
2021/06/27 07:33:12;;;;;;;11.82;8.82;;;23.00;68.90;;;;;;4675490;30;20535;-81
2021/06/27 07:35:39;;;;;;;10.70;7.95;;;23.10;68.90;;;;;;4718016;30;20118;-80
2021/06/27 07:38:08;;;;;;;12.25;9.52;;;23.10;68.80;;;;;;4704849;30;20049;-80
2021/06/27 07:40:41;;;;;;;12.38;9.02;;;23.10;68.70;;;;;;4704956;30;20131;-80
2021/06/27 07:43:09;;;;;;;11.93;8.40;;;23.20;68.70;;;;;;4724013;30;20490;-81
2021/06/27 07:45:41;;;;;;;10.32;7.80;;;23.20;68.60;;;;;;4706915;30;20131;-80
2021/06/27 07:48:14;;;;;;;10.82;7.68;;;23.20;68.50;;;;;;4706447;30;20057;-81
2021/06/27 07:51:05;;;;;;;8.60;6.28;;;23.30;68.50;;;;;;4711818;30;20427;-80
2021/06/27 07:53:35;;;;;;;11.32;8.23;;;23.30;68.30;;;;;;4703510;30;20075;-80
2021/06/27 07:56:03;;;;;;;10.02;6.97;;;23.30;68.20;;;;;;4716739;30;20091;-81
2021/06/27 07:58:51;;;;;;;11.10;7.90;;;23.40;68.30;;;;;;4734119;30;20048;-80
2021/06/27 08:01:18;;;;;;;10.75;8.27;;;23.40;68.10;;;;;;4706596;30;20095;-80
2021/06/27 08:03:45;;;;;;;11.63;8.57;;;23.40;68.00;;;;;;4703689;30;20054;-80
2021/06/27 08:06:21;;;;;;;9.20;6.97;;;23.50;67.90;;;;;;4714722;30;20469;-80
2021/06/27 08:08:48;;;;;;;12.25;7.90;;;23.50;67.90;;;;;;4709716;30;20053;-81
2021/06/27 08:11:15;;;;;;;9.35;7.05;;;23.50;67.70;;;;;;4687066;30;20048;-80
2021/06/27 08:13:42;;;;;;;8.38;6.82;;;23.50;67.60;;;;;;4694067;30;20407;-81
2021/06/27 08:16:09;;;;;;;9.13;6.50;;;23.60;67.60;;;;;;4724765;30;20108;-81
2021/06/27 08:18:38;;;;;;;8.20;6.28;;;23.70;67.50;;;;;;4708229;30;20080;-83
2021/06/27 08:21:05;;;;;;;8.95;6.53;;;23.80;67.30;;;;;;4701320;30;20108;-83
2021/06/27 08:23:32;;;;;;;10.10;7.82;;;24.00;67.10;;;;;;4713652;30;20053;-83
2021/06/27 08:25:59;;;;;;;7.07;5.63;;;24.10;66.80;;;;;;4712983;30;20101;-83
2021/06/27 08:28:26;;;;;;;9.15;7.32;;;24.20;66.60;;;;;;4694466;30;20102;-82
2021/06/27 08:30:53;;;;;;;8.93;7.15;;;24.30;66.40;;;;;;4706889;30;20110;-83
2021/06/27 08:33:21;;;;;;;9.63;7.38;;;24.30;66.20;;;;;;4705031;30;20060;-84
2021/06/27 08:35:48;;;;;;;9.48;6.18;;;24.40;66.30;;;;;;4692274;30;20161;-83
2021/06/27 08:38:16;;;;;;;8.10;6.47;;;24.40;66.10;;;;;;4716022;30;20507;-82
2021/06/27 08:40:45;;;;;;;8.07;6.15;;;24.50;66.10;;;;;;4678211;30;20142;-83
2021/06/27 08:43:13;;;;;;;8.63;6.80;;;24.50;65.90;;;;;;4704233;30;20111;-84
2021/06/27 08:45:52;;;;;;;7.90;6.20;;;24.60;65.70;;;;;;4720979;30;20045;-83
2021/06/27 08:48:21;;;;;;;8.93;6.47;;;24.70;65.50;;;;;;4722884;30;20434;-83
2021/06/27 08:50:50;;;;;;;8.00;6.32;;;24.70;65.30;;;;;;4705442;30;20119;-83
2021/06/27 08:53:18;;;;;;;7.70;6.32;;;24.70;65.10;;;;;;4721885;30;20045;-83
2021/06/27 08:55:47;;;;;;;7.20;5.85;;;24.70;65.00;;;;;;4701635;30;20092;-83
2021/06/27 08:58:14;;;;;;;6.93;5.35;;;24.70;65.60;;;;;;4705325;30;20045;-82
2021/06/27 09:00:41;;;;;;;7.60;5.72;;;24.90;65.00;;;;;;4719657;30;20048;-82
2021/06/27 09:03:10;;;;;;;7.70;5.82;;;24.90;64.70;;;;;;4726790;30;20090;-83
2021/06/27 09:05:40;;;;;;;8.40;5.25;;;24.90;64.70;;;;;;4726278;30;20052;-82
2021/06/27 09:08:18;;;;;;;7.78;5.95;;;24.90;64.70;;;;;;4699470;30;20045;-77
2021/06/27 09:10:45;;;;;;;8.50;6.68;;;24.90;64.50;;;;;;4729694;30;20403;-78
2021/06/27 09:13:12;;;;;;;9.27;6.30;;;24.80;64.50;;;;;;4729436;30;20122;-78
2021/06/27 09:15:45;;;;;;;8.70;6.65;;;24.70;64.70;;;;;;4727093;30;20072;-78
2021/06/27 09:18:15;;;;;;;9.02;6.72;;;24.70;64.50;;;;;;4729299;30;20045;-77
2021/06/27 09:20:46;;;;;;;7.82;5.93;;;24.60;64.70;;;;;;4729780;30;20063;-78
2021/06/27 09:23:15;;;;;;;8.95;7.10;;;24.70;64.60;;;;;;4727198;30;20419;-77
2021/06/27 09:25:43;;;;;;;7.10;5.82;;;24.70;64.50;;;;;;4727576;30;20053;-77
2021/06/27 09:28:18;;;;;;;7.65;6.15;;;24.90;64.40;;;;;;4729465;30;20146;-78
2021/06/27 09:30:55;;;;;;;8.93;7.60;;;25.00;64.30;;;;;;4728407;30;20060;-77
2021/06/27 09:33:25;;;;;;;9.15;6.72;;;25.10;64.00;;;;;;4712168;30;20045;-77
2021/06/27 09:36:03;;;;;;;8.40;6.60;;;25.10;63.80;;;;;;4714794;30;20466;-77
2021/06/27 09:38:45;;;;;;;9.18;6.55;;;25.30;63.70;;;;;;4725544;30;20033;-78
2021/06/27 09:41:22;;;;;;;7.57;5.57;;;25.40;63.40;;;;;;4728813;30;20457;-79
2021/06/27 09:43:59;;;;;;;6.20;4.85;;;25.40;63.20;;;;;;4733351;30;20048;-78
2021/06/27 09:46:35;;;;;;;7.72;6.35;;;25.50;63.10;;;;;;4712909;30;20066;-78
2021/06/27 09:49:09;;;;;;;6.05;5.15;;;25.60;63.00;;;;;;4732321;30;20087;-79
2021/06/27 09:51:41;;;;;;;7.35;5.40;;;25.70;62.70;;;;;;4715662;30;20114;-79
2021/06/27 09:54:13;;;;;;;7.07;5.45;;;25.70;62.60;;;;;;4729309;30;20103;-82
2021/06/27 09:56:41;;;;;;;6.85;5.30;;;25.80;62.40;;;;;;4716930;30;20056;-83
2021/06/27 09:59:21;;;;;;;5.68;4.25;;;25.90;62.40;;;;;;4681870;30;20048;-82
2021/06/27 10:01:48;;;;;;;5.47;4.40;;;26.00;62.20;;;;;;4717779;30;20102;-83
2021/06/27 10:04:29;;;;;;;5.47;4.60;;;26.10;62.10;;;;;;4716801;30;20045;-81
2021/06/27 10:06:58;;;;;;;5.40;4.33;;;26.10;61.80;;;;;;4711956;30;20503;-81
2021/06/27 10:09:31;;;;;;;5.32;4.30;;;26.20;61.90;;;;;;4717484;30;20652;-83
2021/06/27 10:12:03;;;;;;;6.57;4.40;;;26.20;61.70;;;;;;4730658;30;20060;-81
2021/06/27 10:14:53;;;;;;;4.57;3.80;;;26.20;61.70;;;;;;4724820;30;20060;-86
2021/06/27 10:17:25;;;;;;;6.45;5.65;;;26.20;61.70;;;;;;4715929;30;20048;-85
2021/06/27 10:19:53;;;;;;;6.50;5.03;;;26.30;61.50;;;;;;4718286;30;20124;-80
2021/06/27 10:22:23;;;;;;;5.70;4.55;;;26.30;61.40;;;;;;4725014;30;20049;-82
2021/06/27 10:24:52;;;;;;;6.38;4.65;;;26.30;62.00;;;;;;4705132;30;20060;-80
2021/06/27 10:27:19;;;;;;;6.40;4.85;;;26.30;61.40;;;;;;4729492;30;20084;-81
2021/06/27 10:29:49;;;;;;;5.88;4.47;;;26.30;61.30;;;;;;4713247;30;20110;-79
2021/06/27 10:32:17;;;;;;;5.93;4.65;;;26.40;61.20;;;;;;4701315;30;20117;-81
2021/06/27 10:34:45;;;;;;;6.15;4.82;;;26.40;61.10;;;;;;4714020;30;20056;-81
2021/06/27 10:37:32;;;;;;;6.75;4.63;;;26.50;60.90;;;;;;4731438;30;20118;-79
2021/06/27 10:40:47;;;;;;;5.18;4.05;;;26.50;60.50;;;;;;4720910;30;20057;-78
2021/06/27 10:43:14;;;;;;;6.35;4.70;;;26.60;60.30;;;;;;4706950;30;20131;-79
2021/06/27 10:45:47;;;;;;;5.72;4.35;;;26.50;60.30;;;;;;4695314;30;20057;-79
2021/06/27 10:48:31;;;;;;;;;;;26.50;60.20;;;;;;4720857;30;20503;-81
2021/06/27 10:51:00;;;;;;;6.75;4.97;;;26.50;60.30;;;;;;4722525;30;19938;-78
2021/06/27 10:53:27;;;;;;;6.38;5.43;;;26.50;60.10;;;;;;4712876;30;20103;-78
2021/06/27 10:56:03;;;;;;;8.68;4.85;;;26.50;60.00;;;;;;4722882;30;20049;-80
2021/06/27 10:58:38;;;;;;;5.85;4.78;;;26.60;59.90;;;;;;4723664;30;20452;-79
2021/06/27 11:01:09;;;;;;;6.80;4.88;;;26.80;59.40;;;;;;4721621;30;20513;-79
2021/06/27 11:03:41;;;;;;;5.82;5.00;;;26.90;59.20;;;;;;4724102;30;20044;-82
2021/06/27 11:06:17;;;;;;;6.45;4.55;;;27.00;58.90;;;;;;4727168;30;20049;-77
2021/06/27 11:08:49;;;;;;;6.55;4.72;;;27.00;58.80;;;;;;4727459;30;20048;-81
2021/06/27 11:11:18;;;;;;;4.90;4.10;;;27.10;58.30;;;;;;4721953;30;20503;-79
2021/06/27 11:14:11;;;;;;;4.57;3.97;;;27.10;58.40;;;;;;4717062;30;20466;-78
2021/06/27 11:17:06;;;;;;;5.60;4.45;;;27.30;58.20;;;;;;4693545;30;20627;-77
2021/06/27 11:19:41;;;;;;;6.13;4.85;;;27.50;57.90;;;;;;4705233;30;20088;-77
2021/06/27 11:22:15;;;;;;;5.22;4.38;;;27.60;57.60;;;;;;4711346;30;20081;-83
2021/06/27 11:24:47;;;;;;;5.18;3.90;;;27.70;57.30;;;;;;4697102;30;20045;-79
2021/06/27 11:27:39;;;;;;;4.38;3.70;;;27.80;57.00;;;;;;4684086;30;20049;-79
2021/06/27 11:30:25;;;;;;;5.47;3.58;;;28.00;56.70;;;;;;4695764;30;20077;-77
2021/06/27 11:32:52;;;;;;;4.63;3.75;;;28.30;56.20;;;;;;4711958;30;20061;-81
2021/06/27 11:35:33;;;;;;;4.57;3.60;;;28.30;55.80;;;;;;4712412;30;20124;-80
2021/06/27 11:38:01;;;;;;;5.88;3.78;;;28.50;55.60;;;;;;4697318;30;20038;-80
2021/06/27 11:40:41;;;;;;;4.75;4.07;;;28.60;55.50;;;;;;4707546;30;20467;-83
2021/06/27 11:43:08;;;;;;;4.07;3.25;;;28.80;55.00;;;;;;4718702;30;20049;-83
2021/06/27 11:45:38;;;;;;;4.25;3.20;;;28.80;54.90;;;;;;4687573;30;20115;-81
2021/06/27 11:48:08;;;;;;;5.05;4.00;;;28.90;54.70;;;;;;4706229;30;20060;-79
2021/06/27 11:50:38;;;;;;;4.30;3.78;;;28.90;54.50;;;;;;4704088;30;20061;-84
2021/06/27 11:53:10;;;;;;;4.05;3.28;;;28.80;54.00;;;;;;4704108;30;20553;-82
2021/06/27 11:55:47;;;;;;;5.47;3.58;;;28.90;53.90;;;;;;4719033;30;20099;-82
2021/06/27 11:58:20;;;;;;;4.40;3.25;;;29.00;53.10;;;;;;4703097;30;20057;-79
2021/06/27 12:00:50;;;;;;;4.88;3.40;;;29.10;53.00;;;;;;4687946;30;20057;-78
2021/06/27 12:03:21;;;;;;;3.85;2.95;;;29.30;52.50;;;;;;4719937;30;20449;-88
2021/06/27 12:05:53;;;;;;;3.13;2.45;;;29.70;51.70;;;;;;4717802;30;20053;-86
2021/06/27 12:08:22;;;;;;;5.82;3.47;;;30.10;51.30;;;;;;4708054;30;20063;-87
2021/06/27 12:10:52;;;;;;;4.25;3.42;;;30.30;50.60;;;;;;4716002;30;20049;-82
2021/06/27 12:13:23;;;;;;;4.93;3.33;;;30.50;49.90;;;;;;4715837;30;20067;-80
2021/06/27 12:15:52;;;;;;;3.95;3.15;;;30.60;49.20;;;;;;4705538;30;20061;-78
2021/06/27 12:18:28;;;;;;;4.05;3.25;;;30.80;49.30;;;;;;4705213;30;20055;-81
2021/06/27 12:21:01;;;;;;;3.72;2.88;;;31.10;48.90;;;;;;4706567;30;20099;-85
2021/06/27 12:23:32;;;;;;;4.40;3.55;;;31.40;48.50;;;;;;4712531;30;20049;-81
2021/06/27 12:26:07;;;;;;;4.20;2.97;;;31.60;47.60;;;;;;4705976;30;20060;-88
2021/06/27 12:28:40;;;;;;;3.47;2.42;;;31.80;47.40;;;;;;4691367;30;20045;-80
2021/06/27 12:31:08;;;;;;;3.55;2.72;;;32.00;47.30;;;;;;4714901;30;20053;-80
2021/06/27 12:33:38;;;;;;;3.65;2.78;;;32.20;46.80;;;;;;4721723;30;20565;-86
2021/06/27 12:36:11;;;;;;;5.28;2.70;;;32.60;46.40;;;;;;4711721;30;20100;-79
2021/06/27 12:38:40;;;;;;;3.47;2.97;;;32.70;46.00;;;;;;4719196;30;20045;-78
2021/06/27 12:41:11;;;;;;;3.97;2.83;;;32.80;45.60;;;;;;4702932;30;20049;-78
2021/06/27 12:43:43;;;;;;;3.50;2.87;;;33.10;45.50;;;;;;4694750;30;20503;-80
2021/06/27 12:46:19;;;;;;;4.22;3.05;;;33.40;44.90;;;;;;4718703;30;20150;-78
2021/06/27 12:49:12;;;;;;;4.32;3.20;;;33.70;44.90;;;;;;4700509;30;20065;-78
2021/06/27 12:51:45;;;;;;;3.95;2.65;;;33.90;44.20;;;;;;4698842;30;20061;-79
2021/06/27 12:54:18;;;;;;;3.63;2.47;;;34.00;44.10;;;;;;4690362;30;20087;-82